Time;durP1;ratioP1;P1;durP2;ratioP2;P2;SDS_P1;SDS_P2;PMS_P1;PMS_P2;Temp;Humidity;BMP_temperature;BMP_pressure;BME280_temperature;BME280_humidity;BME280_pressure;Samples;Min_cycle;Max_cycle;Signal;HPM_P1;HPM_P2
2023/09/02 00:00:20;;;;;;;8.47;3.90;;;14.20;99.90;;;;;;4994641;28;20205;-68
2023/09/02 00:02:46;;;;;;;6.83;3.87;;;14.20;99.90;;;;;;4994731;28;20173;-67
2023/09/02 00:05:11;;;;;;;8.63;4.40;;;14.20;99.90;;;;;;4994547;28;20185;-67
2023/09/02 00:07:37;;;;;;;6.83;4.03;;;14.20;99.90;;;;;;4993930;28;20186;-68
2023/09/02 00:10:03;;;;;;;6.63;4.03;;;14.20;99.90;;;;;;4994617;28;20208;-68
2023/09/02 00:12:29;;;;;;;5.77;3.77;;;14.20;99.90;;;;;;4994564;28;20304;-67
2023/09/02 00:14:54;;;;;;;6.57;3.60;;;14.30;99.90;;;;;;4994354;28;20303;-68
2023/09/02 00:17:21;;;;;;;6.27;3.67;;;14.30;99.90;;;;;;4993483;28;20208;-68
2023/09/02 00:19:46;;;;;;;7.27;3.73;;;14.30;99.90;;;;;;4994376;28;20173;-67
2023/09/02 00:22:12;;;;;;;5.40;3.77;;;14.30;99.90;;;;;;4994398;28;20184;-68
2023/09/02 00:24:38;;;;;;;5.40;3.40;;;14.30;99.90;;;;;;4994337;28;20200;-68
2023/09/02 00:27:04;;;;;;;11.53;3.63;;;14.30;99.90;;;;;;4993607;28;20191;-68
2023/09/02 00:29:30;;;;;;;7.67;3.23;;;14.40;99.90;;;;;;4994290;28;20283;-67
2023/09/02 00:31:56;;;;;;;6.37;3.40;;;14.40;99.90;;;;;;4994368;28;20647;-68
2023/09/02 00:34:21;;;;;;;8.17;3.23;;;14.40;99.90;;;;;;4994051;28;20674;-68
2023/09/02 00:36:47;;;;;;;4.93;3.30;;;14.40;99.90;;;;;;4993500;28;20251;-68
2023/09/02 00:39:12;;;;;;;5.17;3.37;;;14.40;99.90;;;;;;4994015;28;20670;-68
2023/09/02 00:41:46;;;;;;;7.77;3.77;;;14.40;99.90;;;;;;4993946;28;20188;-68
2023/09/02 00:44:12;;;;;;;6.53;3.90;;;14.40;99.90;;;;;;4994075;28;20696;-68
2023/09/02 00:46:38;;;;;;;5.57;3.27;;;14.40;99.90;;;;;;4994096;28;20260;-68
2023/09/02 00:49:03;;;;;;;5.53;3.57;;;14.50;99.90;;;;;;4993199;28;20177;-69
2023/09/02 00:51:29;;;;;;;11.03;3.73;;;14.50;99.90;;;;;;4993988;28;20173;-67
2023/09/02 00:53:55;;;;;;;11.00;3.80;;;14.50;99.90;;;;;;4993932;28;20197;-68
2023/09/02 00:56:22;;;;;;;7.27;3.47;;;14.50;99.90;;;;;;4993901;28;20180;-68
2023/09/02 00:58:48;;;;;;;11.40;4.20;;;14.60;99.90;;;;;;4991346;28;20208;-68
2023/09/02 01:01:13;;;;;;;8.73;3.63;;;14.60;99.90;;;;;;4992615;28;20166;-68
2023/09/02 01:03:41;;;;;;;5.93;3.20;;;14.50;99.90;;;;;;4992358;28;20355;-68
2023/09/02 01:06:08;;;;;;;10.67;3.87;;;14.50;99.90;;;;;;4993686;28;20195;-68
2023/09/02 01:08:34;;;;;;;7.77;2.90;;;14.50;99.90;;;;;;4993252;28;20277;-67
2023/09/02 01:11:00;;;;;;;5.30;3.10;;;14.50;99.90;;;;;;4993502;28;20260;-68
2023/09/02 01:13:27;;;;;;;6.43;2.90;;;14.40;99.90;;;;;;4993101;28;20220;-68
2023/09/02 01:15:54;;;;;;;5.30;3.13;;;14.40;99.90;;;;;;4993224;28;20259;-68
2023/09/02 01:18:24;;;;;;;6.53;2.97;;;14.40;99.90;;;;;;4992367;28;20200;-68
2023/09/02 01:21:27;;;;;;;5.63;3.43;;;14.40;99.90;;;;;;4993186;28;20312;-67
2023/09/02 01:24:31;;;;;;;7.90;3.93;;;14.40;99.90;;;;;;4993033;28;20220;-68
2023/09/02 01:27:15;;;;;;;7.73;3.60;;;14.40;99.90;;;;;;4992462;28;20169;-68
2023/09/02 01:30:09;;;;;;;9.63;4.03;;;14.50;99.90;;;;;;4993099;28;20177;-68
2023/09/02 01:32:40;;;;;;;12.40;3.67;;;14.50;99.90;;;;;;4991560;28;20193;-68
2023/09/02 01:35:07;;;;;;;7.67;3.47;;;14.50;99.90;;;;;;4992832;28;20193;-68
2023/09/02 01:37:44;;;;;;;8.33;3.20;;;14.50;99.90;;;;;;4992131;28;20588;-68
2023/09/02 01:40:22;;;;;;;8.37;3.70;;;14.50;99.90;;;;;;4992853;28;20175;-68
2023/09/02 01:42:52;;;;;;;8.80;3.77;;;14.50;99.90;;;;;;4992815;28;20193;-68
2023/09/02 01:45:19;;;;;;;13.03;5.37;;;14.50;99.90;;;;;;4992456;28;20193;-69
2023/09/02 01:47:46;;;;;;;12.37;5.63;;;14.50;99.90;;;;;;4991761;28;20758;-68
2023/09/02 01:50:16;;;;;;;11.50;5.73;;;14.50;99.90;;;;;;4992590;28;20713;-69
2023/09/02 01:52:43;;;;;;;13.53;5.93;;;14.50;99.90;;;;;;4992595;28;20628;-68
2023/09/02 01:55:09;;;;;;;13.10;5.53;;;14.50;99.90;;;;;;4992451;28;20201;-68
2023/09/02 01:57:36;;;;;;;13.23;5.20;;;14.60;99.90;;;;;;4991699;28;20613;-67
2023/09/02 02:00:02;;;;;;;13.13;5.83;;;14.60;99.90;;;;;;4991170;28;20174;-68
2023/09/02 02:02:27;;;;;;;16.23;5.83;;;14.60;99.90;;;;;;4992535;28;20169;-67
2023/09/02 02:04:57;;;;;;;14.00;6.20;;;14.60;99.90;;;;;;4991483;28;20668;-68
2023/09/02 02:07:28;;;;;;;12.83;5.37;;;14.60;99.90;;;;;;4991612;28;20161;-69
2023/09/02 02:09:59;;;;;;;13.83;5.83;;;14.60;99.90;;;;;;4992213;28;20177;-68
2023/09/02 02:12:25;;;;;;;10.20;5.50;;;14.70;99.90;;;;;;4992319;28;20561;-68
2023/09/02 02:14:51;;;;;;;14.30;5.47;;;14.70;99.90;;;;;;4991909;28;20255;-68
2023/09/02 02:17:16;;;;;;;13.33;5.90;;;14.70;99.90;;;;;;4989934;28;20236;-68
2023/09/02 02:19:43;;;;;;;12.43;4.73;;;14.70;99.90;;;;;;4991569;28;20184;-68
2023/09/02 02:22:10;;;;;;;14.53;5.80;;;14.50;99.90;;;;;;4992010;28;20177;-68
2023/09/02 02:24:35;;;;;;;9.23;4.87;;;14.50;99.90;;;;;;4991936;28;20189;-68
2023/09/02 02:27:02;;;;;;;8.43;4.37;;;14.50;99.90;;;;;;4991292;28;20623;-70
2023/09/02 02:29:27;;;;;;;12.97;5.20;;;14.50;99.90;;;;;;4991912;28;20745;-69
2023/09/02 02:31:53;;;;;;;9.93;4.93;;;14.50;99.90;;;;;;4991909;28;20212;-68
2023/09/02 02:34:19;;;;;;;10.27;5.20;;;14.60;99.90;;;;;;4991672;28;20228;-68
2023/09/02 02:36:44;;;;;;;17.57;6.23;;;14.50;99.90;;;;;;4991164;28;20256;-67
2023/09/02 02:39:10;;;;;;;13.37;5.57;;;14.60;99.90;;;;;;4991661;28;20540;-68
2023/09/02 02:41:35;;;;;;;21.60;5.83;;;14.60;99.90;;;;;;4991762;28;20185;-68
2023/09/02 02:44:02;;;;;;;12.83;5.93;;;14.60;99.90;;;;;;4991577;28;20193;-68
2023/09/02 02:46:27;;;;;;;12.63;5.87;;;14.60;99.90;;;;;;4991739;28;20196;-69
2023/09/02 02:48:53;;;;;;;12.03;5.67;;;14.60;99.90;;;;;;4990882;28;20185;-68
2023/09/02 02:51:19;;;;;;;14.07;6.07;;;14.60;99.90;;;;;;4991541;28;20193;-68
2023/09/02 02:53:45;;;;;;;13.70;6.20;;;14.60;99.90;;;;;;4991499;28;20197;-68
2023/09/02 02:56:11;;;;;;;31.97;6.60;;;14.60;99.90;;;;;;4991533;28;20179;-68
2023/09/02 02:58:36;;;;;;;14.97;6.60;;;14.50;99.90;;;;;;4989955;28;20196;-68
2023/09/02 03:01:04;;;;;;;18.97;5.73;;;14.50;99.90;;;;;;4991472;28;20527;-68
2023/09/02 03:03:30;;;;;;;13.77;5.93;;;14.60;99.90;;;;;;4991381;28;20674;-67
2023/09/02 03:05:56;;;;;;;15.50;5.77;;;14.60;99.90;;;;;;4991474;28;20196;-68
2023/09/02 03:08:21;;;;;;;9.93;4.70;;;14.60;99.90;;;;;;4989116;28;20209;-68
2023/09/02 03:11:01;;;;;;;12.47;5.73;;;14.60;99.90;;;;;;4991364;28;20258;-68
2023/09/02 03:13:30;;;;;;;7.33;4.20;;;14.60;99.90;;;;;;4991538;28;20577;-68
2023/09/02 03:15:56;;;;;;;10.63;4.37;;;14.50;99.90;;;;;;4991446;28;20169;-68
2023/09/02 03:18:22;;;;;;;6.57;3.57;;;14.50;99.90;;;;;;4990422;28;20656;-68
2023/09/02 03:20:48;;;;;;;5.83;3.17;;;14.50;99.90;;;;;;4991349;28;20655;-69
2023/09/02 03:23:14;;;;;;;7.67;4.07;;;14.50;99.90;;;;;;4991144;28;20184;-68
2023/09/02 03:25:40;;;;;;;5.60;2.90;;;14.50;99.90;;;;;;4991558;28;20193;-68
2023/09/02 03:28:05;;;;;;;5.47;2.60;;;14.40;99.90;;;;;;4990619;28;20185;-68
2023/09/02 03:30:31;;;;;;;6.87;2.70;;;14.40;99.90;;;;;;4991243;28;20639;-69
2023/09/02 03:32:57;;;;;;;4.93;2.43;;;14.40;99.90;;;;;;4989967;28;20228;-69
2023/09/02 03:35:23;;;;;;;4.43;2.50;;;14.40;99.90;;;;;;4991093;28;20200;-68
2023/09/02 03:37:48;;;;;;;5.63;2.90;;;14.40;99.90;;;;;;4990392;28;20209;-69
2023/09/02 03:40:15;;;;;;;5.83;2.40;;;14.30;99.90;;;;;;4991157;28;20244;-68
2023/09/02 03:42:41;;;;;;;6.37;2.80;;;14.30;99.90;;;;;;4991221;28;20172;-69
2023/09/02 03:45:09;;;;;;;7.00;2.23;;;14.30;99.90;;;;;;4989888;28;20198;-69
2023/09/02 03:47:35;;;;;;;6.13;2.63;;;14.30;99.90;;;;;;4990413;28;20290;-68
2023/09/02 03:50:02;;;;;;;3.83;2.33;;;14.30;99.90;;;;;;4990164;28;20193;-68
2023/09/02 03:52:27;;;;;;;7.70;2.73;;;14.30;99.90;;;;;;4990953;28;20162;-68
2023/09/02 03:54:53;;;;;;;4.53;2.50;;;14.30;99.90;;;;;;4990993;28;20663;-69
2023/09/02 03:57:19;;;;;;;6.27;2.63;;;14.20;99.90;;;;;;4990165;28;20701;-68
2023/09/02 03:59:44;;;;;;;4.33;2.40;;;14.20;99.90;;;;;;4991006;28;20173;-68
2023/09/02 04:02:10;;;;;;;6.47;3.13;;;14.20;99.90;;;;;;4989288;28;20177;-69
2023/09/02 04:04:35;;;;;;;5.67;2.43;;;14.20;99.90;;;;;;4990797;28;20200;-69
2023/09/02 04:07:01;;;;;;;6.83;3.20;;;14.20;99.90;;;;;;4990488;28;20356;-68
2023/09/02 04:09:27;;;;;;;7.10;3.10;;;14.20;99.90;;;;;;4992331;28;20863;-68
2023/09/02 04:11:53;;;;;;;5.90;3.00;;;14.20;99.90;;;;;;4992968;28;20216;-68
2023/09/02 04:14:18;;;;;;;5.00;2.87;;;14.20;99.90;;;;;;4994316;28;20636;-68
2023/09/02 04:16:44;;;;;;;4.33;2.60;;;14.20;99.90;;;;;;4993733;28;20188;-68
2023/09/02 04:19:09;;;;;;;4.13;2.30;;;14.20;99.90;;;;;;4994157;28;20552;-68
2023/09/02 04:21:35;;;;;;;4.20;2.40;;;14.10;99.90;;;;;;4994249;28;20264;-68
2023/09/02 04:24:01;;;;;;;7.07;3.50;;;14.10;99.90;;;;;;4994263;28;20225;-68
2023/09/02 04:26:26;;;;;;;7.47;2.97;;;14.10;99.90;;;;;;4994235;28;20236;-69
2023/09/02 04:28:55;;;;;;;5.37;2.13;;;14.10;99.90;;;;;;4993507;28;20184;-68
2023/09/02 04:31:22;;;;;;;3.20;1.80;;;14.10;99.90;;;;;;4994048;28;20177;-68
2023/09/02 04:33:47;;;;;;;3.70;1.80;;;14.00;99.90;;;;;;4993931;28;20264;-68
2023/09/02 04:36:13;;;;;;;5.80;2.20;;;14.00;99.90;;;;;;4994052;28;20572;-68
2023/09/02 04:38:39;;;;;;;4.43;2.17;;;13.90;99.90;;;;;;4993249;28;20256;-68
2023/09/02 04:41:06;;;;;;;4.23;2.27;;;13.90;99.90;;;;;;4993951;28;20182;-69
2023/09/02 04:43:32;;;;;;;6.10;2.30;;;13.80;99.90;;;;;;4993788;28;20192;-68
2023/09/02 04:46:01;;;;;;;3.93;2.10;;;13.70;99.90;;;;;;4993859;28;20177;-69
2023/09/02 04:48:27;;;;;;;4.10;2.10;;;13.80;99.90;;;;;;4992980;28;20177;-68
2023/09/02 04:50:55;;;;;;;5.83;2.20;;;13.90;99.90;;;;;;4992920;28;20181;-69
2023/09/02 04:53:22;;;;;;;4.23;2.47;;;13.90;99.90;;;;;;4993602;28;20185;-68
2023/09/02 04:55:48;;;;;;;8.50;2.30;;;13.90;99.90;;;;;;4993719;28;20173;-68
2023/09/02 04:58:14;;;;;;;8.03;2.03;;;13.90;99.90;;;;;;4992044;28;20678;-69
2023/09/02 05:00:40;;;;;;;4.07;2.20;;;13.80;99.90;;;;;;4995284;28;20184;-68
2023/09/02 05:03:06;;;;;;;3.60;1.80;;;13.60;99.90;;;;;;4992774;28;20169;-69
2023/09/02 05:05:32;;;;;;;5.47;1.60;;;13.70;99.90;;;;;;4992636;28;20204;-68
2023/09/02 05:07:58;;;;;;;2.77;1.70;;;13.70;99.90;;;;;;5001019;28;20196;-68
2023/09/02 05:10:24;;;;;;;4.33;1.70;;;13.70;99.90;;;;;;5012004;28;20671;-68
2023/09/02 05:12:50;;;;;;;2.90;1.90;;;13.80;99.90;;;;;;5011789;28;20259;-68
2023/09/02 05:15:15;;;;;;;4.33;2.50;;;13.80;99.90;;;;;;5012010;28;20694;-68
2023/09/02 05:17:42;;;;;;;12.13;4.30;;;13.90;99.90;;;;;;5011261;28;20618;-68
2023/09/02 05:20:08;;;;;;;9.73;4.37;;;13.90;99.90;;;;;;5011754;28;20192;-68
2023/09/02 05:22:35;;;;;;;7.23;3.90;;;13.80;99.90;;;;;;5011614;28;20235;-68
2023/09/02 05:25:03;;;;;;;4.57;2.90;;;13.80;99.90;;;;;;5010154;28;20199;-68
2023/09/02 05:27:29;;;;;;;4.73;2.37;;;13.80;99.90;;;;;;5011064;28;20283;-68
2023/09/02 05:29:54;;;;;;;12.87;2.27;;;13.80;99.90;;;;;;5011739;28;20235;-68
2023/09/02 05:32:20;;;;;;;3.87;2.00;;;13.80;99.90;;;;;;5011837;28;20188;-68
2023/09/02 05:34:46;;;;;;;2.87;1.70;;;13.90;99.90;;;;;;5010385;28;20197;-68
2023/09/02 05:37:11;;;;;;;6.67;2.20;;;14.00;99.90;;;;;;5010622;28;20705;-68
2023/09/02 05:39:37;;;;;;;3.43;2.13;;;14.00;99.90;;;;;;5011545;28;20669;-69
2023/09/02 05:42:03;;;;;;;5.00;2.53;;;14.00;99.90;;;;;;5011424;28;20185;-68
2023/09/02 05:44:29;;;;;;;5.87;2.40;;;14.10;99.90;;;;;;5011416;28;20264;-68
2023/09/02 05:46:54;;;;;;;3.73;2.27;;;14.20;99.90;;;;;;5010855;28;20226;-68
2023/09/02 05:49:20;;;;;;;4.60;2.10;;;14.30;99.90;;;;;;5011086;28;20180;-68
2023/09/02 05:51:45;;;;;;;2.63;1.97;;;14.40;99.90;;;;;;5011338;28;20195;-68
2023/09/02 05:54:11;;;;;;;5.43;2.30;;;14.50;99.90;;;;;;5011222;28;20224;-69
2023/09/02 05:56:37;;;;;;;3.00;2.10;;;14.60;99.90;;;;;;5011180;28;20184;-69
2023/09/02 05:59:03;;;;;;;11.30;5.63;;;14.60;99.90;;;;;;5010455;28;20759;-68
2023/09/02 06:01:29;;;;;;;3.40;2.10;;;14.60;99.90;;;;;;5011127;28;20187;-68
2023/09/02 06:03:55;;;;;;;3.03;2.00;;;14.60;99.90;;;;;;5011189;28;20192;-70
2023/09/02 06:06:21;;;;;;;4.00;2.50;;;14.50;99.90;;;;;;5011482;28;20191;-68
2023/09/02 06:08:46;;;;;;;5.70;1.77;;;14.40;99.90;;;;;;5010638;28;20705;-68
2023/09/02 06:11:12;;;;;;;4.50;1.97;;;14.40;99.90;;;;;;5011129;28;20292;-69
2023/09/02 06:13:37;;;;;;;4.43;2.10;;;14.50;99.90;;;;;;5010919;28;20224;-68
2023/09/02 06:16:04;;;;;;;5.23;3.00;;;14.60;99.90;;;;;;5011099;28;20226;-68
2023/09/02 06:18:30;;;;;;;5.17;2.80;;;14.60;99.90;;;;;;5009935;28;20556;-70
2023/09/02 06:20:57;;;;;;;9.17;4.87;;;14.70;99.90;;;;;;5010955;28;20200;-69
2023/09/02 06:23:25;;;;;;;9.30;3.37;;;14.80;99.90;;;;;;5010812;28;20260;-68
2023/09/02 06:25:56;;;;;;;3.97;2.40;;;14.80;99.90;;;;;;5010670;28;20669;-68
2023/09/02 06:28:21;;;;;;;5.67;2.73;;;14.80;99.90;;;;;;5010164;28;20172;-68
2023/09/02 06:30:47;;;;;;;4.87;2.30;;;14.90;99.90;;;;;;4995279;28;20275;-68
2023/09/02 06:33:12;;;;;;;9.90;5.67;;;15.10;99.90;;;;;;4990797;28;20212;-69
2023/09/02 06:35:38;;;;;;;5.43;3.10;;;15.00;99.90;;;;;;4991286;28;20600;-68
2023/09/02 06:38:03;;;;;;;10.83;2.87;;;14.80;99.90;;;;;;4990353;28;20205;-68
2023/09/02 06:40:29;;;;;;;4.50;2.50;;;14.90;99.90;;;;;;4989822;28;20177;-68
2023/09/02 06:42:55;;;;;;;4.33;2.40;;;15.00;99.90;;;;;;4990943;28;20174;-68
2023/09/02 06:45:21;;;;;;;4.10;2.63;;;15.20;99.90;;;;;;4989812;28;20685;-69
2023/09/02 06:47:46;;;;;;;5.57;2.90;;;15.30;99.90;;;;;;4990210;28;20185;-70
2023/09/02 06:50:12;;;;;;;7.97;4.17;;;15.40;99.90;;;;;;4990856;28;20273;-68
2023/09/02 06:52:37;;;;;;;9.03;4.97;;;15.40;99.90;;;;;;4990906;28;20651;-68
2023/09/02 06:55:03;;;;;;;9.70;5.27;;;15.50;99.90;;;;;;4990748;28;20339;-68
2023/09/02 06:57:29;;;;;;;10.03;5.00;;;15.70;99.90;;;;;;4990104;28;20197;-69
2023/09/02 06:59:55;;;;;;;11.10;5.27;;;15.80;99.90;;;;;;4990806;28;20253;-69
2023/09/02 07:02:20;;;;;;;14.77;6.53;;;15.80;99.90;;;;;;4989709;28;20184;-68
2023/09/02 07:04:49;;;;;;;11.47;5.43;;;15.80;99.90;;;;;;4990754;28;20276;-68
2023/09/02 07:07:15;;;;;;;9.30;4.30;;;15.90;99.90;;;;;;4990315;28;20253;-68
2023/09/02 07:09:41;;;;;;;5.60;3.60;;;16.10;99.90;;;;;;4991013;28;20743;-68
2023/09/02 07:12:06;;;;;;;7.30;3.90;;;16.20;99.90;;;;;;4991042;28;20173;-68
2023/09/02 07:14:32;;;;;;;6.33;3.17;;;16.30;99.90;;;;;;4990088;28;20311;-69
2023/09/02 07:16:58;;;;;;;5.20;3.10;;;16.40;99.90;;;;;;4989235;28;20181;-68
2023/09/02 07:19:24;;;;;;;5.23;2.87;;;16.30;99.90;;;;;;4989990;28;20184;-68
2023/09/02 07:21:50;;;;;;;4.37;2.83;;;16.40;99.90;;;;;;4990372;28;20169;-69
2023/09/02 07:24:15;;;;;;;4.20;2.50;;;16.40;99.90;;;;;;4990630;28;20279;-68
2023/09/02 07:26:41;;;;;;;5.13;2.40;;;16.60;99.90;;;;;;4990373;28;20303;-70
2023/09/02 07:29:07;;;;;;;4.97;2.60;;;16.80;99.90;;;;;;4990451;28;20185;-66
2023/09/02 07:31:33;;;;;;;3.50;1.90;;;17.00;99.90;;;;;;4990679;28;20193;-65
2023/09/02 07:33:58;;;;;;;2.47;1.77;;;17.10;99.90;;;;;;4989948;28;20196;-65
2023/09/02 07:36:24;;;;;;;7.23;2.20;;;17.20;99.90;;;;;;4990951;28;20165;-65
2023/09/02 07:38:50;;;;;;;6.23;2.97;;;17.20;99.90;;;;;;4989975;28;20658;-65
2023/09/02 07:41:15;;;;;;;4.73;2.20;;;17.30;99.90;;;;;;4990700;28;20319;-67
2023/09/02 07:43:41;;;;;;;5.87;3.30;;;17.40;99.90;;;;;;4990538;28;20190;-68
2023/09/02 07:46:06;;;;;;;5.37;2.80;;;17.50;99.90;;;;;;4994384;28;20177;-67
2023/09/02 07:48:32;;;;;;;5.23;3.13;;;17.60;99.90;;;;;;4994072;28;20539;-66
2023/09/02 07:50:58;;;;;;;4.07;2.60;;;17.60;99.90;;;;;;4994101;28;20178;-67
2023/09/02 07:53:23;;;;;;;5.63;2.93;;;17.50;99.90;;;;;;4993629;28;20929;-66
2023/09/02 07:55:49;;;;;;;5.43;2.30;;;17.60;99.90;;;;;;4994309;28;20188;-66
2023/09/02 07:58:14;;;;;;;4.03;2.50;;;17.70;99.90;;;;;;4993395;28;20228;-66
2023/09/02 08:00:41;;;;;;;6.70;3.00;;;17.90;99.90;;;;;;4993979;28;20177;-68
2023/09/02 08:03:06;;;;;;;4.57;2.77;;;18.00;99.90;;;;;;4993870;28;20173;-66
2023/09/02 08:05:32;;;;;;;4.60;2.77;;;18.20;99.90;;;;;;4993800;28;20542;-68
2023/09/02 08:07:58;;;;;;;53.03;24.10;;;18.30;99.90;;;;;;4993263;28;20170;-67
2023/09/02 08:10:23;;;;;;;10.33;5.67;;;18.40;99.90;;;;;;4993755;28;20925;-66
2023/09/02 08:12:49;;;;;;;6.57;3.63;;;18.50;99.90;;;;;;4993758;28;20188;-66
2023/09/02 08:15:15;;;;;;;7.07;3.40;;;18.50;99.90;;;;;;4993769;28;20284;-66
2023/09/02 08:17:41;;;;;;;5.30;3.03;;;18.60;99.90;;;;;;4993304;28;20208;-65
2023/09/02 08:20:08;;;;;;;7.90;3.60;;;18.70;99.90;;;;;;4994043;28;20181;-67
2023/09/02 08:22:36;;;;;;;64.60;27.07;;;18.70;99.90;;;;;;4993726;28;20188;-64
2023/09/02 08:25:02;;;;;;;68.03;34.97;;;18.70;99.90;;;;;;4993720;28;20189;-66
2023/09/02 08:27:28;;;;;;;6.47;3.63;;;18.90;99.90;;;;;;4993185;28;20185;-66
2023/09/02 08:29:53;;;;;;;5.33;3.17;;;18.70;99.90;;;;;;4993663;28;20377;-66
2023/09/02 08:32:19;;;;;;;4.17;2.63;;;18.80;99.90;;;;;;4993606;28;20189;-64
2023/09/02 08:34:45;;;;;;;4.07;2.53;;;19.00;99.90;;;;;;4993117;28;20258;-66
2023/09/02 08:37:10;;;;;;;5.07;2.70;;;19.30;99.90;;;;;;4992764;28;20546;-64
2023/09/02 08:39:36;;;;;;;3.27;2.20;;;19.60;99.90;;;;;;4993362;28;20535;-66
2023/09/02 08:42:02;;;;;;;3.70;2.10;;;19.90;99.90;;;;;;4993452;28;20553;-67
2023/09/02 08:44:28;;;;;;;4.23;2.27;;;20.20;99.90;;;;;;4992293;28;20263;-67
2023/09/02 08:46:54;;;;;;;3.57;2.37;;;20.60;99.90;;;;;;4991852;28;20268;-66
2023/09/02 08:49:20;;;;;;;5.00;2.40;;;20.80;99.90;;;;;;4992345;28;20170;-67
2023/09/02 08:51:46;;;;;;;4.10;2.63;;;20.80;99.90;;;;;;4993108;28;20176;-68
2023/09/02 08:54:15;;;;;;;5.67;2.40;;;20.80;99.90;;;;;;4993042;28;20673;-66
2023/09/02 08:56:42;;;;;;;5.73;2.60;;;20.60;99.90;;;;;;4991669;28;20550;-67
2023/09/02 08:59:13;;;;;;;3.93;2.10;;;20.50;99.90;;;;;;4992686;28;20216;-66
2023/09/02 09:01:43;;;;;;;3.23;2.20;;;20.70;99.90;;;;;;4991620;28;20177;-65
2023/09/02 09:04:10;;;;;;;4.90;2.30;;;21.20;99.90;;;;;;4992625;28;20193;-66
2023/09/02 09:06:37;;;;;;;3.00;2.10;;;21.70;99.90;;;;;;4993050;28;20189;-66
2023/09/02 09:09:03;;;;;;;3.03;2.30;;;22.50;99.90;;;;;;4992577;28;20209;-66
2023/09/02 09:11:43;;;;;;;3.67;1.97;;;23.60;99.90;;;;;;4992822;28;20675;-65
2023/09/02 09:14:21;;;;;;;2.73;2.03;;;24.70;99.90;;;;;;4992525;28;20224;-67
2023/09/02 09:16:49;;;;;;;3.87;2.07;;;24.80;99.90;;;;;;4992086;28;20164;-66
2023/09/02 09:19:17;;;;;;;3.27;2.10;;;24.80;99.90;;;;;;4992399;28;20181;-67
2023/09/02 09:21:44;;;;;;;3.53;2.10;;;24.70;99.90;;;;;;4991041;28;20565;-69
2023/09/02 09:24:13;;;;;;;5.37;1.87;;;24.70;99.90;;;;;;4992685;28;20201;-68
2023/09/02 09:26:41;;;;;;;3.33;2.20;;;24.40;99.90;;;;;;4992419;28;20208;-67
2023/09/02 09:29:11;;;;;;;4.87;1.83;;;24.40;99.90;;;;;;4992045;28;20177;-69
2023/09/02 09:31:37;;;;;;;2.77;1.83;;;24.50;99.90;;;;;;4992194;28;20232;-66
2023/09/02 09:34:03;;;;;;;3.20;1.80;;;25.10;99.90;;;;;;4991400;28;20201;-67
2023/09/02 09:36:30;;;;;;;2.60;1.60;;;25.60;99.90;;;;;;4992251;28;20176;-66
2023/09/02 09:39:06;;;;;;;5.53;1.70;;;25.60;99.90;;;;;;4991563;28;20207;-67
2023/09/02 09:41:33;;;;;;;2.40;1.30;;;26.20;99.90;;;;;;4992010;28;20165;-67
2023/09/02 09:44:16;;;;;;;3.07;1.47;;;26.30;99.90;;;;;;4991781;28;20224;-67
2023/09/02 09:46:53;;;;;;;1.50;1.20;;;26.40;99.90;;;;;;4991731;28;20169;-70
2023/09/02 09:49:24;;;;;;;1.47;1.00;;;27.40;99.90;;;;;;4991867;28;20178;-67
2023/09/02 09:51:59;;;;;;;1.50;1.00;;;28.00;99.90;;;;;;4991924;28;20178;-68
2023/09/02 09:54:50;;;;;;;2.17;1.10;;;28.00;99.90;;;;;;4991664;28;20206;-67
2023/09/02 09:57:29;;;;;;;3.30;1.07;;;28.30;99.90;;;;;;4991282;28;20231;-68
2023/09/02 09:59:54;;;;;;;1.20;0.83;;;29.00;99.90;;;;;;4991815;28;20165;-68
2023/09/02 10:02:21;;;;;;;1.43;0.80;;;29.40;99.90;;;;;;4990449;28;20239;-68
2023/09/02 10:04:52;;;;;;;0.97;0.70;;;29.60;99.90;;;;;;4991535;28;20335;-68
2023/09/02 10:07:32;;;;;;;0.90;0.70;;;29.50;99.90;;;;;;4990332;28;20876;-66
2023/09/02 10:10:04;;;;;;;1.73;0.70;;;28.90;99.90;;;;;;4991888;28;20639;-69
2023/09/02 10:12:35;;;;;;;3.73;0.80;;;29.10;99.90;;;;;;4991699;28;20203;-68
2023/09/02 10:15:02;;;;;;;1.50;0.80;;;29.30;99.90;;;;;;4991597;28;20264;-68
2023/09/02 10:17:28;;;;;;;2.60;1.03;;;29.20;99.90;;;;;;4990820;28;20201;-68
2023/09/02 10:19:53;;;;;;;3.73;0.80;;;29.30;99.90;;;;;;4991822;28;20196;-68
2023/09/02 10:22:21;;;;;;;0.90;0.80;;;29.20;99.90;;;;;;4990172;28;20614;-68
2023/09/02 10:25:05;;;;;;;0.90;0.70;;;29.30;99.90;;;;;;4991116;28;20197;-70
2023/09/02 10:27:36;;;;;;;4.13;0.70;;;29.70;99.90;;;;;;4990926;28;20174;-69
2023/09/02 10:30:03;;;;;;;0.50;0.50;;;29.60;99.90;;;;;;4991208;28;20227;-68
2023/09/02 10:32:37;;;;;;;2.47;0.57;;;29.90;99.90;;;;;;4991117;28;20184;-68
2023/09/02 10:35:06;;;;;;;1.03;0.60;;;29.60;99.90;;;;;;4990942;28;20205;-68
2023/09/02 10:37:49;;;;;;;0.70;0.70;;;29.90;99.90;;;;;;4990273;28;20200;-68
2023/09/02 10:40:23;;;;;;;1.83;0.70;;;29.40;99.90;;;;;;4991256;28;20612;-69
2023/09/02 10:42:49;;;;;;;0.70;0.60;;;29.10;99.90;;;;;;4990826;28;20174;-70
2023/09/02 10:45:16;;;;;;;0.77;0.70;;;28.60;99.90;;;;;;4990967;28;20263;-69
2023/09/02 10:47:46;;;;;;;1.20;0.60;;;28.20;99.90;;;;;;4990346;28;20190;-66
2023/09/02 10:50:13;;;;;;;1.83;0.63;;;27.90;99.90;;;;;;4990720;28;20192;-70
2023/09/02 10:52:39;;;;;;;0.80;0.50;;;27.80;99.90;;;;;;4990762;28;20198;-66
2023/09/02 10:55:08;;;;;;;2.73;0.77;;;27.60;99.90;;;;;;4990727;28;20723;-66
2023/09/02 10:57:57;;;;;;;2.47;0.80;;;27.50;99.90;;;;;;4990065;28;20214;-67
2023/09/02 11:00:24;;;;;;;0.70;0.50;;;27.70;99.90;;;;;;4990851;28;20206;-68
2023/09/02 11:02:58;;;;;;;0.70;0.60;;;27.90;99.90;;;;;;4990770;28;20178;-69
2023/09/02 11:05:25;;;;;;;0.70;0.70;;;27.40;99.90;;;;;;4990514;28;20557;-71
2023/09/02 11:07:52;;;;;;;3.77;0.80;;;27.60;99.90;;;;;;4990409;28;20209;-66
2023/09/02 11:10:19;;;;;;;1.13;0.70;;;27.90;99.90;;;;;;4990630;28;20179;-66
2023/09/02 11:12:57;;;;;;;3.40;0.97;;;27.70;99.90;;;;;;4989240;28;20184;-66
2023/09/02 11:15:23;;;;;;;1.80;0.60;;;27.60;99.90;;;;;;4990737;28;20210;-67
2023/09/02 11:17:48;;;;;;;1.27;0.67;;;27.60;99.90;;;;;;4990146;28;20211;-67
2023/09/02 11:20:19;;;;;;;0.80;0.70;;;27.70;99.90;;;;;;4993369;28;20186;-66
2023/09/02 11:22:56;;;;;;;0.73;0.60;;;27.30;99.90;;;;;;4994698;28;20164;-66
2023/09/02 11:25:28;;;;;;;1.23;0.70;;;27.30;99.90;;;;;;4994528;28;20189;-66
2023/09/02 11:27:55;;;;;;;1.00;0.70;;;26.90;99.90;;;;;;4994011;28;20185;-66
2023/09/02 11:30:22;;;;;;;0.87;0.60;;;26.80;99.90;;;;;;4994384;28;20227;-66
2023/09/02 11:32:48;;;;;;;1.47;0.80;;;26.50;99.90;;;;;;4994412;28;20181;-66
2023/09/02 11:35:22;;;;;;;1.63;0.70;;;26.50;99.90;;;;;;4994370;28;20201;-68
2023/09/02 11:37:48;;;;;;;2.13;0.80;;;26.50;99.90;;;;;;4993645;28;20201;-66
2023/09/02 11:40:17;;;;;;;1.53;0.80;;;26.80;99.90;;;;;;4994371;28;20216;-66
2023/09/02 11:42:50;;;;;;;1.30;0.80;;;27.00;99.90;;;;;;4994274;28;20197;-66
2023/09/02 11:45:16;;;;;;;2.33;0.83;;;26.90;99.90;;;;;;4994416;28;20194;-67
2023/09/02 11:47:41;;;;;;;0.73;0.57;;;26.70;99.90;;;;;;4993622;28;20185;-66
2023/09/02 11:50:21;;;;;;;5.50;0.63;;;26.70;99.90;;;;;;4994027;28;20287;-65
2023/09/02 11:52:48;;;;;;;0.80;0.70;;;26.60;99.90;;;;;;4994127;28;20208;-65
2023/09/02 11:55:15;;;;;;;1.30;0.80;;;26.70;99.90;;;;;;4993730;28;20201;-65
2023/09/02 11:57:41;;;;;;;0.43;0.43;;;27.00;99.90;;;;;;4993419;28;20678;-64
2023/09/02 12:00:08;;;;;;;2.13;0.60;;;27.10;99.90;;;;;;4994014;28;20173;-64
2023/09/02 12:02:37;;;;;;;0.93;0.60;;;27.00;99.90;;;;;;4993833;28;20525;-66
2023/09/02 12:05:04;;;;;;;2.57;0.60;;;26.80;99.90;;;;;;4993742;28;20201;-66
2023/09/02 12:07:31;;;;;;;0.63;0.60;;;26.90;99.90;;;;;;4993339;28;20223;-65
2023/09/02 12:09:57;;;;;;;0.90;0.50;;;26.50;99.90;;;;;;4993603;28;20201;-65
2023/09/02 12:12:23;;;;;;;3.40;0.50;;;26.10;99.90;;;;;;4993836;28;20204;-65
2023/09/02 12:14:48;;;;;;;2.50;1.17;;;26.20;99.90;;;;;;4993690;28;20300;-65
2023/09/02 12:17:15;;;;;;;21.07;11.23;;;26.40;99.90;;;;;;4992959;28;20271;-64
2023/09/02 12:19:41;;;;;;;2.10;1.50;;;26.20;99.90;;;;;;4993189;28;20165;-68
2023/09/02 12:22:07;;;;;;;1.13;0.70;;;26.20;99.90;;;;;;4993569;28;20541;-65
2023/09/02 12:24:33;;;;;;;3.67;0.60;;;26.10;99.90;;;;;;4993287;28;20197;-65
2023/09/02 12:26:58;;;;;;;0.50;0.40;;;26.40;99.90;;;;;;4992577;28;20228;-64
2023/09/02 12:29:25;;;;;;;2.13;0.53;;;26.70;99.90;;;;;;4993111;28;20173;-64
2023/09/02 12:31:55;;;;;;;2.00;0.80;;;26.80;99.90;;;;;;4993487;28;20169;-64
2023/09/02 12:34:33;;;;;;;0.43;0.40;;;27.00;99.90;;;;;;4993151;28;20291;-68
2023/09/02 12:37:12;;;;;;;0.83;0.60;;;27.00;99.90;;;;;;4992696;28;20256;-66
2023/09/02 12:39:38;;;;;;;3.60;0.50;;;27.10;99.90;;;;;;4992107;28;20681;-67
2023/09/02 12:42:16;;;;;;;1.13;0.50;;;27.50;99.90;;;;;;4991734;28;20181;-69
2023/09/02 12:44:51;;;;;;;0.80;0.50;;;27.70;99.90;;;;;;4992762;28;20208;-68
2023/09/02 12:47:25;;;;;;;0.40;0.33;;;27.40;99.90;;;;;;4992549;28;20181;-67